sensor_id;sensor_type;location;lat;lon;timestamp;temperature;humidity
71668;DHT22;59504;54.806;9.640;2023-01-29T00:01:48;3.00;80.80
71668;DHT22;59504;54.806;9.640;2023-01-29T00:04:09;2.90;80.70
71668;DHT22;59504;54.806;9.640;2023-01-29T00:06:09;3.00;80.80
71668;DHT22;59504;54.806;9.640;2023-01-29T00:08:11;2.90;80.70
71668;DHT22;59504;54.806;9.640;2023-01-29T00:10:31;2.80;80.70
71668;DHT22;59504;54.806;9.640;2023-01-29T00:12:52;2.80;80.80
71668;DHT22;59504;54.806;9.640;2023-01-29T00:15:13;2.80;80.90
71668;DHT22;59504;54.806;9.640;2023-01-29T00:17:34;2.80;81.00
71668;DHT22;59504;54.806;9.640;2023-01-29T00:19:54;2.80;81.10
71668;DHT22;59504;54.806;9.640;2023-01-29T00:22:15;2.80;81.10
71668;DHT22;59504;54.806;9.640;2023-01-29T00:24:36;2.80;81.20
71668;DHT22;59504;54.806;9.640;2023-01-29T00:26:56;2.80;81.30
71668;DHT22;59504;54.806;9.640;2023-01-29T00:29:17;2.80;81.30
71668;DHT22;59504;54.806;9.640;2023-01-29T00:31:22;2.80;81.20
71668;DHT22;59504;54.806;9.640;2023-01-29T00:33:23;2.70;81.20
71668;DHT22;59504;54.806;9.640;2023-01-29T00:35:30;2.80;81.30
71668;DHT22;59504;54.806;9.640;2023-01-29T00:37:51;2.70;81.20
71668;DHT22;59504;54.806;9.640;2023-01-29T00:40:12;2.70;81.20
71668;DHT22;59504;54.806;9.640;2023-01-29T00:42:12;2.70;81.20
71668;DHT22;59504;54.806;9.640;2023-01-29T00:44:52;2.70;81.20
71668;DHT22;59504;54.806;9.640;2023-01-29T00:47:18;2.70;81.30
71668;DHT22;59504;54.806;9.640;2023-01-29T00:49:52;2.70;81.20
71668;DHT22;59504;54.806;9.640;2023-01-29T00:52:13;2.70;81.60
71668;DHT22;59504;54.806;9.640;2023-01-29T00:54:45;2.70;81.00
71668;DHT22;59504;54.806;9.640;2023-01-29T00:57:06;2.70;80.90
71668;DHT22;59504;54.806;9.640;2023-01-29T00:59:27;2.70;80.90
71668;DHT22;59504;54.806;9.640;2023-01-29T01:01:28;2.60;80.90
71668;DHT22;59504;54.806;9.640;2023-01-29T01:03:47;2.60;81.00
71668;DHT22;59504;54.806;9.640;2023-01-29T01:05:48;2.60;81.10
71668;DHT22;59504;54.806;9.640;2023-01-29T01:07:53;2.60;81.30
71668;DHT22;59504;54.806;9.640;2023-01-29T01:09:55;2.60;81.30
71668;DHT22;59504;54.806;9.640;2023-01-29T01:12:34;2.50;81.30
71668;DHT22;59504;54.806;9.640;2023-01-29T01:14:55;2.60;81.40
71668;DHT22;59504;54.806;9.640;2023-01-29T01:17:16;2.60;81.40
71668;DHT22;59504;54.806;9.640;2023-01-29T01:19:36;2.60;81.50
71668;DHT22;59504;54.806;9.640;2023-01-29T01:21:57;2.60;81.70
71668;DHT22;59504;54.806;9.640;2023-01-29T01:24:18;2.60;81.60
71668;DHT22;59504;54.806;9.640;2023-01-29T01:26:39;2.60;81.60
71668;DHT22;59504;54.806;9.640;2023-01-29T01:29:00;2.60;81.70
71668;DHT22;59504;54.806;9.640;2023-01-29T01:31:11;2.60;81.60
71668;DHT22;59504;54.806;9.640;2023-01-29T01:33:12;2.60;81.80
71668;DHT22;59504;54.806;9.640;2023-01-29T01:35:13;2.60;81.80
71668;DHT22;59504;54.806;9.640;2023-01-29T01:37:30;2.60;81.90
71668;DHT22;59504;54.806;9.640;2023-01-29T01:39:51;2.60;81.90
71668;DHT22;59504;54.806;9.640;2023-01-29T01:42:17;2.70;82.00
71668;DHT22;59504;54.806;9.640;2023-01-29T01:44:58;2.70;82.00
71668;DHT22;59504;54.806;9.640;2023-01-29T01:49:51;2.70;82.10
71668;DHT22;59504;54.806;9.640;2023-01-29T01:52:14;2.70;82.90
71668;DHT22;59504;54.806;9.640;2023-01-29T01:54:36;2.80;82.40
71668;DHT22;59504;54.806;9.640;2023-01-29T01:57:02;2.70;82.30
71668;DHT22;59504;54.806;9.640;2023-01-29T01:59:36;2.70;82.30
71668;DHT22;59504;54.806;9.640;2023-01-29T02:01:38;2.80;82.40
71668;DHT22;59504;54.806;9.640;2023-01-29T02:04:05;2.80;82.30
71668;DHT22;59504;54.806;9.640;2023-01-29T02:06:46;2.80;82.30
71668;DHT22;59504;54.806;9.640;2023-01-29T02:09:31;2.80;82.30
71668;DHT22;59504;54.806;9.640;2023-01-29T02:11:55;2.80;82.40
71668;DHT22;59504;54.806;9.640;2023-01-29T02:14:15;2.80;82.40
71668;DHT22;59504;54.806;9.640;2023-01-29T02:16:36;3.00;82.70
71668;DHT22;59504;54.806;9.640;2023-01-29T02:18:57;2.90;82.70
71668;DHT22;59504;54.806;9.640;2023-01-29T02:28:40;3.00;83.10
71668;DHT22;59504;54.806;9.640;2023-01-29T02:31:06;3.00;83.00
71668;DHT22;59504;54.806;9.640;2023-01-29T02:33:47;3.00;83.10
71668;DHT22;59504;54.806;9.640;2023-01-29T02:41:33;3.10;83.10
71668;DHT22;59504;54.806;9.640;2023-01-29T02:46:52;3.10;83.40
71668;DHT22;59504;54.806;9.640;2023-01-29T02:52:14;3.20;83.30
71668;DHT22;59504;54.806;9.640;2023-01-29T02:56:57;3.20;83.00
71668;DHT22;59504;54.806;9.640;2023-01-29T02:59:04;3.20;83.00
71668;DHT22;59504;54.806;9.640;2023-01-29T03:01:32;3.20;82.90
71668;DHT22;59504;54.806;9.640;2023-01-29T03:04:00;3.20;82.90
71668;DHT22;59504;54.806;9.640;2023-01-29T03:06:27;3.20;82.80
71668;DHT22;59504;54.806;9.640;2023-01-29T03:09:09;3.20;82.80
71668;DHT22;59504;54.806;9.640;2023-01-29T03:11:37;3.20;82.70
71668;DHT22;59504;54.806;9.640;2023-01-29T03:14:03;3.20;82.70
71668;DHT22;59504;54.806;9.640;2023-01-29T03:16:44;3.20;82.60
71668;DHT22;59504;54.806;9.640;2023-01-29T03:21:15;3.20;82.60
71668;DHT22;59504;54.806;9.640;2023-01-29T03:23:39;3.20;82.60
71668;DHT22;59504;54.806;9.640;2023-01-29T03:26:21;3.20;82.60
71668;DHT22;59504;54.806;9.640;2023-01-29T03:29:02;3.20;82.50
71668;DHT22;59504;54.806;9.640;2023-01-29T03:31:42;3.10;82.50
71668;DHT22;59504;54.806;9.640;2023-01-29T03:34:23;3.10;82.50
71668;DHT22;59504;54.806;9.640;2023-01-29T03:36:56;3.10;82.50
71668;DHT22;59504;54.806;9.640;2023-01-29T03:39:17;3.10;82.50
71668;DHT22;59504;54.806;9.640;2023-01-29T03:41:25;3.10;83.00
71668;DHT22;59504;54.806;9.640;2023-01-29T03:43:40;3.10;82.40
71668;DHT22;59504;54.806;9.640;2023-01-29T03:46:04;3.10;82.50
71668;DHT22;59504;54.806;9.640;2023-01-29T03:48:15;3.10;82.50
71668;DHT22;59504;54.806;9.640;2023-01-29T03:53:27;3.10;82.50
71668;DHT22;59504;54.806;9.640;2023-01-29T03:55:37;3.10;82.50
71668;DHT22;59504;54.806;9.640;2023-01-29T03:58:26;3.00;82.30
71668;DHT22;59504;54.806;9.640;2023-01-29T04:01:03;3.10;82.60
71668;DHT22;59504;54.806;9.640;2023-01-29T04:03:36;3.10;82.60
71668;DHT22;59504;54.806;9.640;2023-01-29T04:06:00;3.00;82.50
71668;DHT22;59504;54.806;9.640;2023-01-29T04:08:31;3.10;82.70
71668;DHT22;59504;54.806;9.640;2023-01-29T04:10:56;3.00;82.80
71668;DHT22;59504;54.806;9.640;2023-01-29T04:13:18;3.10;82.80
71668;DHT22;59504;54.806;9.640;2023-01-29T04:15:47;3.10;82.80
71668;DHT22;59504;54.806;9.640;2023-01-29T04:18:09;3.10;82.90
71668;DHT22;59504;54.806;9.640;2023-01-29T04:20:30;3.20;83.00
71668;DHT22;59504;54.806;9.640;2023-01-29T04:22:51;3.10;82.90
71668;DHT22;59504;54.806;9.640;2023-01-29T04:25:21;3.10;82.90
71668;DHT22;59504;54.806;9.640;2023-01-29T04:30:48;3.10;82.90
71668;DHT22;59504;54.806;9.640;2023-01-29T04:36:37;3.20;83.00
71668;DHT22;59504;54.806;9.640;2023-01-29T04:39:24;3.20;83.00
71668;DHT22;59504;54.806;9.640;2023-01-29T04:41:33;3.20;83.10
71668;DHT22;59504;54.806;9.640;2023-01-29T04:57:35;3.40;83.60
71668;DHT22;59504;54.806;9.640;2023-01-29T05:00:02;3.40;83.60
71668;DHT22;59504;54.806;9.640;2023-01-29T05:02:26;3.40;83.50
71668;DHT22;59504;54.806;9.640;2023-01-29T05:04:48;3.50;83.60
71668;DHT22;59504;54.806;9.640;2023-01-29T05:07:12;3.40;83.50
71668;DHT22;59504;54.806;9.640;2023-01-29T05:09:35;3.50;83.50
71668;DHT22;59504;54.806;9.640;2023-01-29T05:11:56;3.50;83.50
71668;DHT22;59504;54.806;9.640;2023-01-29T05:14:18;3.50;83.50
71668;DHT22;59504;54.806;9.640;2023-01-29T05:16:46;3.50;83.50
71668;DHT22;59504;54.806;9.640;2023-01-29T05:19:11;3.50;84.30
71668;DHT22;59504;54.806;9.640;2023-01-29T05:21:32;3.50;83.60
71668;DHT22;59504;54.806;9.640;2023-01-29T05:24:08;3.60;83.70
71668;DHT22;59504;54.806;9.640;2023-01-29T05:26:30;3.60;83.70
71668;DHT22;59504;54.806;9.640;2023-01-29T05:28:49;3.60;83.70
71668;DHT22;59504;54.806;9.640;2023-01-29T05:30:52;3.60;83.80
71668;DHT22;59504;54.806;9.640;2023-01-29T05:32:54;3.70;83.80
71668;DHT22;59504;54.806;9.640;2023-01-29T05:34:54;3.70;83.80
71668;DHT22;59504;54.806;9.640;2023-01-29T05:36:55;3.90;83.90
71668;DHT22;59504;54.806;9.640;2023-01-29T05:38:57;3.70;83.90
71668;DHT22;59504;54.806;9.640;2023-01-29T05:41:17;3.70;83.80
71668;DHT22;59504;54.806;9.640;2023-01-29T05:43:23;3.70;83.70
71668;DHT22;59504;54.806;9.640;2023-01-29T05:45:52;3.80;83.90
71668;DHT22;59504;54.806;9.640;2023-01-29T05:47:57;3.80;83.80
71668;DHT22;59504;54.806;9.640;2023-01-29T05:50:18;3.80;83.80
71668;DHT22;59504;54.806;9.640;2023-01-29T05:52:39;3.80;83.70
71668;DHT22;59504;54.806;9.640;2023-01-29T05:54:59;3.80;83.70
71668;DHT22;59504;54.806;9.640;2023-01-29T05:57:20;3.80;83.70
71668;DHT22;59504;54.806;9.640;2023-01-29T05:59:41;3.90;83.70
71668;DHT22;59504;54.806;9.640;2023-01-29T06:02:02;3.90;83.70
71668;DHT22;59504;54.806;9.640;2023-01-29T06:04:23;3.90;83.70
71668;DHT22;59504;54.806;9.640;2023-01-29T06:06:23;3.90;83.60
71668;DHT22;59504;54.806;9.640;2023-01-29T06:08:24;3.90;83.60
71668;DHT22;59504;54.806;9.640;2023-01-29T06:10:25;4.00;83.70
71668;DHT22;59504;54.806;9.640;2023-01-29T06:12:26;4.00;83.80
71668;DHT22;59504;54.806;9.640;2023-01-29T06:14:47;4.00;83.80
71668;DHT22;59504;54.806;9.640;2023-01-29T06:17:07;4.00;83.90
71668;DHT22;59504;54.806;9.640;2023-01-29T06:19:28;4.10;83.80
71668;DHT22;59504;54.806;9.640;2023-01-29T06:21:49;4.00;83.80
71668;DHT22;59504;54.806;9.640;2023-01-29T06:24:09;4.10;83.80
71668;DHT22;59504;54.806;9.640;2023-01-29T06:26:30;4.10;83.90
71668;DHT22;59504;54.806;9.640;2023-01-29T06:28:50;4.10;83.90
71668;DHT22;59504;54.806;9.640;2023-01-29T06:31:11;4.10;83.80
71668;DHT22;59504;54.806;9.640;2023-01-29T06:33:32;4.10;83.90
71668;DHT22;59504;54.806;9.640;2023-01-29T06:35:56;4.10;84.00
71668;DHT22;59504;54.806;9.640;2023-01-29T06:38:17;4.10;84.70
71668;DHT22;59504;54.806;9.640;2023-01-29T06:40:38;4.20;84.00
71668;DHT22;59504;54.806;9.640;2023-01-29T06:42:38;4.20;84.70
71668;DHT22;59504;54.806;9.640;2023-01-29T06:44:39;4.20;84.00
71668;DHT22;59504;54.806;9.640;2023-01-29T06:46:40;4.20;84.10
71668;DHT22;59504;54.806;9.640;2023-01-29T06:49:01;4.30;84.20
71668;DHT22;59504;54.806;9.640;2023-01-29T06:51:22;4.20;84.20
71668;DHT22;59504;54.806;9.640;2023-01-29T06:53:43;4.30;84.20
71668;DHT22;59504;54.806;9.640;2023-01-29T06:56:04;4.30;84.20
71668;DHT22;59504;54.806;9.640;2023-01-29T06:58:25;4.30;84.20
71668;DHT22;59504;54.806;9.640;2023-01-29T07:00:46;4.30;84.20
71668;DHT22;59504;54.806;9.640;2023-01-29T07:03:08;4.40;84.40
71668;DHT22;59504;54.806;9.640;2023-01-29T07:05:30;4.40;84.30
71668;DHT22;59504;54.806;9.640;2023-01-29T07:07:51;4.40;84.30
71668;DHT22;59504;54.806;9.640;2023-01-29T07:09:51;4.40;84.20
71668;DHT22;59504;54.806;9.640;2023-01-29T07:11:52;4.40;84.30
71668;DHT22;59504;54.806;9.640;2023-01-29T07:14:12;4.50;84.40
71668;DHT22;59504;54.806;9.640;2023-01-29T07:16:34;4.50;84.40
71668;DHT22;59504;54.806;9.640;2023-01-29T07:18:54;4.50;84.30
71668;DHT22;59504;54.806;9.640;2023-01-29T07:21:15;4.50;84.30
71668;DHT22;59504;54.806;9.640;2023-01-29T07:23:35;4.50;84.30
71668;DHT22;59504;54.806;9.640;2023-01-29T07:26:00;4.70;84.40
71668;DHT22;59504;54.806;9.640;2023-01-29T07:28:21;4.60;84.30
71668;DHT22;59504;54.806;9.640;2023-01-29T07:30:42;4.60;84.30
71668;DHT22;59504;54.806;9.640;2023-01-29T07:33:06;4.60;84.20
71668;DHT22;59504;54.806;9.640;2023-01-29T07:35:27;4.60;84.20
71668;DHT22;59504;54.806;9.640;2023-01-29T07:37:49;4.60;84.20
71668;DHT22;59504;54.806;9.640;2023-01-29T07:39:50;4.70;84.20
71668;DHT22;59504;54.806;9.640;2023-01-29T07:42:10;4.70;85.00
71668;DHT22;59504;54.806;9.640;2023-01-29T07:44:31;4.70;84.20
71668;DHT22;59504;54.806;9.640;2023-01-29T07:46:51;4.70;84.10
71668;DHT22;59504;54.806;9.640;2023-01-29T07:49:12;4.70;84.20
71668;DHT22;59504;54.806;9.640;2023-01-29T07:51:33;4.70;84.20
71668;DHT22;59504;54.806;9.640;2023-01-29T07:53:53;4.70;84.30
71668;DHT22;59504;54.806;9.640;2023-01-29T07:56:14;4.70;84.20
71668;DHT22;59504;54.806;9.640;2023-01-29T07:58:35;4.80;84.20
71668;DHT22;59504;54.806;9.640;2023-01-29T08:00:37;4.80;84.20
71668;DHT22;59504;54.806;9.640;2023-01-29T08:03:05;4.80;84.30
71668;DHT22;59504;54.806;9.640;2023-01-29T08:05:26;4.80;84.20
71668;DHT22;59504;54.806;9.640;2023-01-29T08:07:52;4.90;84.20
71668;DHT22;59504;54.806;9.640;2023-01-29T08:10:13;4.80;84.10
71668;DHT22;59504;54.806;9.640;2023-01-29T08:12:34;4.80;84.10
71668;DHT22;59504;54.806;9.640;2023-01-29T08:14:54;4.80;84.00
71668;DHT22;59504;54.806;9.640;2023-01-29T08:17:15;4.80;83.90
71668;DHT22;59504;54.806;9.640;2023-01-29T08:19:17;4.80;84.00
71668;DHT22;59504;54.806;9.640;2023-01-29T08:21:37;4.80;84.00
71668;DHT22;59504;54.806;9.640;2023-01-29T08:23:58;4.90;84.10
71668;DHT22;59504;54.806;9.640;2023-01-29T08:26:19;4.90;84.10
71668;DHT22;59504;54.806;9.640;2023-01-29T08:28:40;4.90;84.20
71668;DHT22;59504;54.806;9.640;2023-01-29T08:31:01;4.90;84.10
71668;DHT22;59504;54.806;9.640;2023-01-29T08:33:21;5.10;84.30
71668;DHT22;59504;54.806;9.640;2023-01-29T08:35:42;5.00;84.20
71668;DHT22;59504;54.806;9.640;2023-01-29T08:37:59;5.00;84.20
71668;DHT22;59504;54.806;9.640;2023-01-29T08:40:00;5.00;84.10
71668;DHT22;59504;54.806;9.640;2023-01-29T08:42:20;5.00;84.20
71668;DHT22;59504;54.806;9.640;2023-01-29T08:44:41;5.00;84.20
71668;DHT22;59504;54.806;9.640;2023-01-29T08:46:42;5.00;84.10
71668;DHT22;59504;54.806;9.640;2023-01-29T08:48:42;5.10;84.20
71668;DHT22;59504;54.806;9.640;2023-01-29T08:51:03;5.10;84.20
71668;DHT22;59504;54.806;9.640;2023-01-29T08:53:24;5.10;84.20
71668;DHT22;59504;54.806;9.640;2023-01-29T08:55:34;5.10;84.10
71668;DHT22;59504;54.806;9.640;2023-01-29T08:57:35;5.10;84.10
71668;DHT22;59504;54.806;9.640;2023-01-29T08:59:55;5.20;84.10
71668;DHT22;59504;54.806;9.640;2023-01-29T09:02:16;5.10;84.00
71668;DHT22;59504;54.806;9.640;2023-01-29T09:04:37;5.20;84.00
71668;DHT22;59504;54.806;9.640;2023-01-29T09:06:57;5.20;84.00
71668;DHT22;59504;54.806;9.640;2023-01-29T09:08:58;5.20;84.00
71668;DHT22;59504;54.806;9.640;2023-01-29T09:11:19;5.20;84.00
71668;DHT22;59504;54.806;9.640;2023-01-29T09:13:39;5.20;83.90
71668;DHT22;59504;54.806;9.640;2023-01-29T09:16:02;5.20;83.90
71668;DHT22;59504;54.806;9.640;2023-01-29T09:18:17;5.30;83.90
71668;DHT22;59504;54.806;9.640;2023-01-29T09:20:38;5.30;84.00
71668;DHT22;59504;54.806;9.640;2023-01-29T09:23:03;5.30;83.90
71668;DHT22;59504;54.806;9.640;2023-01-29T09:25:24;5.30;83.90
71668;DHT22;59504;54.806;9.640;2023-01-29T09:27:45;5.30;83.90
71668;DHT22;59504;54.806;9.640;2023-01-29T09:30:06;5.30;83.80
71668;DHT22;59504;54.806;9.640;2023-01-29T09:32:27;5.30;83.70
71668;DHT22;59504;54.806;9.640;2023-01-29T09:34:50;5.30;83.60
71668;DHT22;59504;54.806;9.640;2023-01-29T09:37:12;5.30;83.60
71668;DHT22;59504;54.806;9.640;2023-01-29T09:39:32;5.40;83.50
71668;DHT22;59504;54.806;9.640;2023-01-29T09:42:15;5.40;83.50
71668;DHT22;59504;54.806;9.640;2023-01-29T09:44:32;5.40;83.50
71668;DHT22;59504;54.806;9.640;2023-01-29T09:46:45;5.40;83.30
71668;DHT22;59504;54.806;9.640;2023-01-29T09:48:51;5.40;83.30
71668;DHT22;59504;54.806;9.640;2023-01-29T09:50:57;5.50;83.40
71668;DHT22;59504;54.806;9.640;2023-01-29T09:55:37;5.40;83.20
71668;DHT22;59504;54.806;9.640;2023-01-29T09:57:46;5.40;83.20
71668;DHT22;59504;54.806;9.640;2023-01-29T09:59:58;5.40;83.00
71668;DHT22;59504;54.806;9.640;2023-01-29T10:02:10;5.30;83.10
71668;DHT22;59504;54.806;9.640;2023-01-29T10:04:51;5.40;83.00
71668;DHT22;59504;54.806;9.640;2023-01-29T10:07:52;5.40;83.00
71668;DHT22;59504;54.806;9.640;2023-01-29T10:12:58;5.40;82.80
71668;DHT22;59504;54.806;9.640;2023-01-29T10:15:53;5.40;82.60
71668;DHT22;59504;54.806;9.640;2023-01-29T10:21:23;5.40;82.50
71668;DHT22;59504;54.806;9.640;2023-01-29T10:23:56;5.40;82.50
71668;DHT22;59504;54.806;9.640;2023-01-29T10:26:24;5.40;82.40
71668;DHT22;59504;54.806;9.640;2023-01-29T10:28:48;5.40;82.40
71668;DHT22;59504;54.806;9.640;2023-01-29T10:31:14;5.50;82.40
71668;DHT22;59504;54.806;9.640;2023-01-29T10:33:24;5.40;82.30
71668;DHT22;59504;54.806;9.640;2023-01-29T10:35:37;5.50;82.40
71668;DHT22;59504;54.806;9.640;2023-01-29T10:38:11;5.50;82.50
71668;DHT22;59504;54.806;9.640;2023-01-29T10:40:43;5.50;82.40
71668;DHT22;59504;54.806;9.640;2023-01-29T10:45:44;5.50;82.20
71668;DHT22;59504;54.806;9.640;2023-01-29T10:58:37;5.80;81.60
71668;DHT22;59504;54.806;9.640;2023-01-29T11:01:01;5.70;81.60
71668;DHT22;59504;54.806;9.640;2023-01-29T11:06:15;5.80;81.40
71668;DHT22;59504;54.806;9.640;2023-01-29T11:08:27;5.80;81.20
71668;DHT22;59504;54.806;9.640;2023-01-29T11:10:31;5.80;81.00
71668;DHT22;59504;54.806;9.640;2023-01-29T11:12:53;5.80;80.90
71668;DHT22;59504;54.806;9.640;2023-01-29T11:15:31;5.80;80.60
71668;DHT22;59504;54.806;9.640;2023-01-29T11:18:04;5.80;80.60
71668;DHT22;59504;54.806;9.640;2023-01-29T11:20:27;5.80;80.00
71668;DHT22;59504;54.806;9.640;2023-01-29T11:22:52;5.80;80.10
71668;DHT22;59504;54.806;9.640;2023-01-29T11:25:19;5.80;79.90
71668;DHT22;59504;54.806;9.640;2023-01-29T11:27:24;5.80;79.70
71668;DHT22;59504;54.806;9.640;2023-01-29T11:29:46;6.00;80.60
71668;DHT22;59504;54.806;9.640;2023-01-29T11:37:21;5.90;79.60
71668;DHT22;59504;54.806;9.640;2023-01-29T11:39:44;6.10;79.60
71668;DHT22;59504;54.806;9.640;2023-01-29T11:42:21;5.90;79.50
71668;DHT22;59504;54.806;9.640;2023-01-29T11:44:42;6.00;79.30
71668;DHT22;59504;54.806;9.640;2023-01-29T11:49:36;6.00;79.20
71668;DHT22;59504;54.806;9.640;2023-01-29T11:51:38;6.00;78.70
71668;DHT22;59504;54.806;9.640;2023-01-29T11:53:44;6.20;78.90
71668;DHT22;59504;54.806;9.640;2023-01-29T11:55:49;6.10;78.70
71668;DHT22;59504;54.806;9.640;2023-01-29T11:58:02;6.10;78.30
71668;DHT22;59504;54.806;9.640;2023-01-29T12:02:40;6.10;77.90
71668;DHT22;59504;54.806;9.640;2023-01-29T12:05:16;6.10;77.10
71668;DHT22;59504;54.806;9.640;2023-01-29T12:07:22;6.10;76.90
71668;DHT22;59504;54.806;9.640;2023-01-29T12:10:00;6.10;76.60
71668;DHT22;59504;54.806;9.640;2023-01-29T12:14:43;6.10;76.60
71668;DHT22;59504;54.806;9.640;2023-01-29T12:17:22;6.00;76.60
71668;DHT22;59504;54.806;9.640;2023-01-29T12:19:54;6.00;76.90
71668;DHT22;59504;54.806;9.640;2023-01-29T12:22:22;5.90;76.90
71668;DHT22;59504;54.806;9.640;2023-01-29T12:24:57;5.90;76.80
71668;DHT22;59504;54.806;9.640;2023-01-29T12:27:21;5.90;77.00
71668;DHT22;59504;54.806;9.640;2023-01-29T12:29:55;5.90;77.10
71668;DHT22;59504;54.806;9.640;2023-01-29T12:35:05;5.90;77.40
71668;DHT22;59504;54.806;9.640;2023-01-29T12:37:59;5.90;77.50
71668;DHT22;59504;54.806;9.640;2023-01-29T12:40:24;5.90;77.50
71668;DHT22;59504;54.806;9.640;2023-01-29T12:42:52;5.90;77.50
71668;DHT22;59504;54.806;9.640;2023-01-29T12:45:20;5.90;77.60
71668;DHT22;59504;54.806;9.640;2023-01-29T12:47:47;5.90;77.50
71668;DHT22;59504;54.806;9.640;2023-01-29T12:50:32;5.90;76.90
71668;DHT22;59504;54.806;9.640;2023-01-29T12:53:21;5.90;77.40
71668;DHT22;59504;54.806;9.640;2023-01-29T12:55:47;5.90;78.00
71668;DHT22;59504;54.806;9.640;2023-01-29T12:58:21;5.90;77.20
71668;DHT22;59504;54.806;9.640;2023-01-29T13:00:32;5.90;77.30
71668;DHT22;59504;54.806;9.640;2023-01-29T13:02:39;5.90;77.40
71668;DHT22;59504;54.806;9.640;2023-01-29T13:05:29;5.90;77.40
71668;DHT22;59504;54.806;9.640;2023-01-29T13:07:27;5.90;77.50
71668;DHT22;59504;54.806;9.640;2023-01-29T13:09:31;5.90;77.50
71668;DHT22;59504;54.806;9.640;2023-01-29T13:11:52;5.80;77.50
71668;DHT22;59504;54.806;9.640;2023-01-29T13:14:41;5.80;77.60
71668;DHT22;59504;54.806;9.640;2023-01-29T13:16:26;5.80;77.70
71668;DHT22;59504;54.806;9.640;2023-01-29T13:18:32;5.90;78.00
71668;DHT22;59504;54.806;9.640;2023-01-29T13:20:37;5.80;78.00
71668;DHT22;59504;54.806;9.640;2023-01-29T13:22:39;5.90;78.30
71668;DHT22;59504;54.806;9.640;2023-01-29T13:24:42;5.90;78.50
71668;DHT22;59504;54.806;9.640;2023-01-29T13:26:47;5.90;78.60
71668;DHT22;59504;54.806;9.640;2023-01-29T13:28:48;5.90;78.60
71668;DHT22;59504;54.806;9.640;2023-01-29T13:31:18;6.10;78.70
71668;DHT22;59504;54.806;9.640;2023-01-29T13:33:22;5.90;78.40
71668;DHT22;59504;54.806;9.640;2023-01-29T13:35:23;5.90;78.40
71668;DHT22;59504;54.806;9.640;2023-01-29T13:37:35;6.00;78.50
71668;DHT22;59504;54.806;9.640;2023-01-29T13:39:39;6.00;78.50
71668;DHT22;59504;54.806;9.640;2023-01-29T13:41:45;6.00;78.50
71668;DHT22;59504;54.806;9.640;2023-01-29T13:43:48;6.00;78.50
71668;DHT22;59504;54.806;9.640;2023-01-29T13:45:51;6.00;78.60
71668;DHT22;59504;54.806;9.640;2023-01-29T13:52:40;6.00;78.50
71668;DHT22;59504;54.806;9.640;2023-01-29T13:55:06;6.00;78.50
71668;DHT22;59504;54.806;9.640;2023-01-29T13:59:52;6.00;78.40
71668;DHT22;59504;54.806;9.640;2023-01-29T14:03:55;6.10;78.40
71668;DHT22;59504;54.806;9.640;2023-01-29T14:05:58;6.00;78.40
71668;DHT22;59504;54.806;9.640;2023-01-29T14:07:59;6.00;78.30
71668;DHT22;59504;54.806;9.640;2023-01-29T14:10:18;6.00;78.30
71668;DHT22;59504;54.806;9.640;2023-01-29T14:17:02;6.00;78.20
71668;DHT22;59504;54.806;9.640;2023-01-29T14:19:19;6.00;78.10
71668;DHT22;59504;54.806;9.640;2023-01-29T14:21:40;6.10;78.20
71668;DHT22;59504;54.806;9.640;2023-01-29T14:24:19;6.00;77.90
71668;DHT22;59504;54.806;9.640;2023-01-29T14:28:51;6.00;77.50
71668;DHT22;59504;54.806;9.640;2023-01-29T14:31:28;6.00;77.60
71668;DHT22;59504;54.806;9.640;2023-01-29T14:33:51;6.00;77.40
71668;DHT22;59504;54.806;9.640;2023-01-29T14:36:13;6.10;77.30
71668;DHT22;59504;54.806;9.640;2023-01-29T14:38:35;6.00;77.20
71668;DHT22;59504;54.806;9.640;2023-01-29T14:43:38;6.00;77.00
71668;DHT22;59504;54.806;9.640;2023-01-29T14:48:54;6.00;76.70
71668;DHT22;59504;54.806;9.640;2023-01-29T14:51:16;6.00;76.60
71668;DHT22;59504;54.806;9.640;2023-01-29T14:53:52;6.00;76.40
71668;DHT22;59504;54.806;9.640;2023-01-29T14:56:13;6.00;76.30
71668;DHT22;59504;54.806;9.640;2023-01-29T14:58:18;6.00;76.20
71668;DHT22;59504;54.806;9.640;2023-01-29T15:00:27;6.00;76.20
71668;DHT22;59504;54.806;9.640;2023-01-29T15:02:39;6.10;76.30
71668;DHT22;59504;54.806;9.640;2023-01-29T15:04:46;6.00;76.60
71668;DHT22;59504;54.806;9.640;2023-01-29T15:06:54;6.00;76.00
71668;DHT22;59504;54.806;9.640;2023-01-29T15:09:14;6.00;76.00
71668;DHT22;59504;54.806;9.640;2023-01-29T15:11:36;6.10;76.00
71668;DHT22;59504;54.806;9.640;2023-01-29T15:14:07;5.90;75.80
71668;DHT22;59504;54.806;9.640;2023-01-29T15:16:16;5.90;75.80
71668;DHT22;59504;54.806;9.640;2023-01-29T15:18:44;5.90;75.70
71668;DHT22;59504;54.806;9.640;2023-01-29T15:20:47;6.00;75.70
71668;DHT22;59504;54.806;9.640;2023-01-29T15:22:48;5.90;75.50
71668;DHT22;59504;54.806;9.640;2023-01-29T15:25:05;6.00;75.70
71668;DHT22;59504;54.806;9.640;2023-01-29T15:27:17;5.90;75.50
71668;DHT22;59504;54.806;9.640;2023-01-29T15:29:22;5.90;75.60
71668;DHT22;59504;54.806;9.640;2023-01-29T15:31:27;5.80;75.60
71668;DHT22;59504;54.806;9.640;2023-01-29T15:33:35;5.90;75.70
71668;DHT22;59504;54.806;9.640;2023-01-29T15:35:40;6.00;75.80
71668;DHT22;59504;54.806;9.640;2023-01-29T15:37:41;6.00;75.80
71668;DHT22;59504;54.806;9.640;2023-01-29T15:40:13;6.00;75.80
71668;DHT22;59504;54.806;9.640;2023-01-29T15:42:46;5.90;75.90
71668;DHT22;59504;54.806;9.640;2023-01-29T15:45:24;5.90;76.50
71668;DHT22;59504;54.806;9.640;2023-01-29T15:47:29;5.90;75.90
71668;DHT22;59504;54.806;9.640;2023-01-29T15:49:34;6.00;76.00
71668;DHT22;59504;54.806;9.640;2023-01-29T15:51:35;5.90;76.00
71668;DHT22;59504;54.806;9.640;2023-01-29T15:53:49;5.90;76.00
71668;DHT22;59504;54.806;9.640;2023-01-29T15:55:51;5.90;76.00
71668;DHT22;59504;54.806;9.640;2023-01-29T15:57:53;5.90;76.10
71668;DHT22;59504;54.806;9.640;2023-01-29T15:59:56;5.90;76.10
71668;DHT22;59504;54.806;9.640;2023-01-29T16:01:57;6.00;76.20
71668;DHT22;59504;54.806;9.640;2023-01-29T16:03:59;6.00;76.20
71668;DHT22;59504;54.806;9.640;2023-01-29T16:06:04;5.90;76.20
71668;DHT22;59504;54.806;9.640;2023-01-29T16:08:10;5.90;76.30
71668;DHT22;59504;54.806;9.640;2023-01-29T16:10:16;5.90;76.20
71668;DHT22;59504;54.806;9.640;2023-01-29T16:12:17;5.90;76.40
71668;DHT22;59504;54.806;9.640;2023-01-29T16:14:21;5.90;76.40
71668;DHT22;59504;54.806;9.640;2023-01-29T16:16:25;6.00;76.60
71668;DHT22;59504;54.806;9.640;2023-01-29T16:18:32;5.90;76.50
71668;DHT22;59504;54.806;9.640;2023-01-29T16:20:43;5.90;76.50
71668;DHT22;59504;54.806;9.640;2023-01-29T16:22:45;5.90;76.50
71668;DHT22;59504;54.806;9.640;2023-01-29T16:24:46;5.90;76.60
71668;DHT22;59504;54.806;9.640;2023-01-29T16:26:49;5.90;76.70
71668;DHT22;59504;54.806;9.640;2023-01-29T16:28:51;5.90;76.60
71668;DHT22;59504;54.806;9.640;2023-01-29T16:30:59;5.90;76.60
71668;DHT22;59504;54.806;9.640;2023-01-29T16:33:05;6.00;76.70
71668;DHT22;59504;54.806;9.640;2023-01-29T16:35:14;6.10;76.90
71668;DHT22;59504;54.806;9.640;2023-01-29T16:37:22;5.90;76.90
71668;DHT22;59504;54.806;9.640;2023-01-29T16:39:28;5.90;76.80